createdAt,value
2023-03-06T00:00:01.045Z,100.00
2023-03-06T00:02:28.664Z,100.00
2023-03-06T00:04:56.258Z,100.00
2023-03-06T00:07:23.908Z,100.00
2023-03-06T00:09:51.491Z,100.00
2023-03-06T00:12:19.128Z,100.00
2023-03-06T00:14:46.806Z,100.00
2023-03-06T00:17:15.766Z,100.00
2023-03-06T00:19:43.364Z,100.00
2023-03-06T00:22:11.439Z,100.00
2023-03-06T00:24:39.045Z,100.00
2023-03-06T00:27:06.674Z,100.00
2023-03-06T00:29:34.316Z,100.00
2023-03-06T00:32:02.047Z,100.00
2023-03-06T00:34:31.070Z,100.00
2023-03-06T00:36:58.693Z,100.00
2023-03-06T00:39:26.656Z,100.00
2023-03-06T00:41:55.504Z,100.00
2023-03-06T00:44:25.783Z,100.00
2023-03-06T00:46:53.386Z,100.00
2023-03-06T00:49:21.001Z,100.00
2023-03-06T00:51:50.013Z,100.00
2023-03-06T00:54:17.630Z,100.00
2023-03-06T00:56:45.856Z,100.00
2023-03-06T00:59:13.504Z,100.00
2023-03-06T01:01:41.138Z,100.00
2023-03-06T01:04:08.796Z,100.00
2023-03-06T01:06:36.443Z,100.00
2023-03-06T01:09:05.646Z,100.00
2023-03-06T01:11:33.271Z,100.00
2023-03-06T01:14:00.924Z,100.00
2023-03-06T01:16:28.554Z,100.00
2023-03-06T01:18:56.218Z,100.00
2023-03-06T01:21:23.883Z,100.00
2023-03-06T01:23:51.503Z,100.00
2023-03-06T01:26:20.496Z,100.00
2023-03-06T01:28:48.124Z,100.00
2023-03-06T01:31:15.820Z,100.00
2023-03-06T01:33:43.586Z,100.00
2023-03-06T01:36:12.680Z,100.00
2023-03-06T01:38:40.298Z,100.00
2023-03-06T01:41:07.989Z,100.00
2023-03-06T01:43:37.248Z,100.00
2023-03-06T01:46:22.835Z,100.00
2023-03-06T01:48:52.046Z,100.00
2023-03-06T01:51:19.708Z,100.00
2023-03-06T01:53:47.682Z,100.00
2023-03-06T01:56:15.407Z,100.00
2023-03-06T01:58:44.550Z,100.00
2023-03-06T02:01:12.438Z,100.00
2023-03-06T02:03:40.107Z,100.00
2023-03-06T02:06:07.937Z,100.00
2023-03-06T02:08:35.595Z,100.00
2023-03-06T02:11:06.149Z,100.00
2023-03-06T02:13:33.795Z,100.00
2023-03-06T02:16:02.766Z,100.00
2023-03-06T02:18:30.379Z,100.00
2023-03-06T02:20:58.790Z,100.00
2023-03-06T02:23:28.502Z,100.00
2023-03-06T02:25:57.464Z,100.00
2023-03-06T02:28:25.719Z,100.00
2023-03-06T02:30:54.040Z,100.00
2023-03-06T02:33:22.630Z,100.00
2023-03-06T02:35:51.179Z,100.00
2023-03-06T02:38:19.289Z,100.00
2023-03-06T02:40:48.312Z,100.00
2023-03-06T02:43:18.073Z,100.00
2023-03-06T02:45:46.604Z,100.00
2023-03-06T02:48:14.404Z,100.00
2023-03-06T02:50:42.480Z,100.00
2023-03-06T02:53:10.834Z,100.00
2023-03-06T02:55:38.612Z,100.00
2023-03-06T02:58:06.460Z,100.00
2023-03-06T03:00:35.618Z,100.00
2023-03-06T03:03:05.778Z,100.00
2023-03-06T03:05:33.396Z,100.00
2023-03-06T03:08:09.040Z,100.00
2023-03-06T03:10:36.734Z,100.00
2023-03-06T03:13:04.362Z,100.00
2023-03-06T03:15:33.045Z,100.00
2023-03-06T03:18:02.087Z,100.00
2023-03-06T03:20:29.793Z,100.00
2023-03-06T03:22:57.437Z,100.00
2023-03-06T03:25:25.457Z,100.00
2023-03-06T03:27:56.094Z,100.00
2023-03-06T03:30:24.166Z,100.00
2023-03-06T03:32:51.820Z,100.00
2023-03-06T03:35:22.058Z,100.00
2023-03-06T03:37:49.727Z,100.00
2023-03-06T03:40:17.957Z,100.00
2023-03-06T03:42:45.578Z,100.00
2023-03-06T03:45:13.882Z,100.00
2023-03-06T03:47:42.018Z,100.00
2023-03-06T03:50:11.378Z,100.00
2023-03-06T03:52:40.710Z,100.00
2023-03-06T03:55:09.059Z,100.00
2023-03-06T03:57:39.340Z,100.00
2023-03-06T04:00:09.882Z,100.00
2023-03-06T04:02:52.592Z,100.00
2023-03-06T04:05:34.643Z,100.00
2023-03-06T04:08:05.490Z,100.00
2023-03-06T04:10:34.528Z,100.00
2023-03-06T04:13:03.432Z,100.00
2023-03-06T04:15:31.556Z,100.00
2023-03-06T04:18:01.164Z,100.00
2023-03-06T04:20:30.645Z,100.00
2023-03-06T04:23:00.695Z,100.00
2023-03-06T04:25:29.747Z,100.00
2023-03-06T04:27:58.978Z,100.00
2023-03-06T04:30:26.970Z,100.00
2023-03-06T04:32:54.562Z,100.00
2023-03-06T04:35:22.308Z,100.00
2023-03-06T04:37:57.403Z,100.00
2023-03-06T04:40:28.234Z,100.00
2023-03-06T04:42:57.985Z,100.00
2023-03-06T04:45:25.731Z,100.00
2023-03-06T04:47:53.396Z,100.00
2023-03-06T04:50:21.344Z,100.00
2023-03-06T04:52:48.990Z,100.00
2023-03-06T04:55:17.241Z,100.00
2023-03-06T04:57:45.858Z,100.00
2023-03-06T05:00:16.022Z,100.00
2023-03-06T05:02:43.762Z,100.00
2023-03-06T05:05:12.023Z,100.00
2023-03-06T05:07:39.744Z,100.00
2023-03-06T05:10:09.651Z,100.00
2023-03-06T05:12:38.005Z,100.00
2023-03-06T05:15:06.044Z,100.00
2023-03-06T05:17:35.051Z,100.00
2023-03-06T05:20:02.846Z,100.00
2023-03-06T05:22:30.494Z,100.00
2023-03-06T05:24:58.101Z,100.00
2023-03-06T05:27:25.711Z,100.00
2023-03-06T05:29:53.406Z,100.00
2023-03-06T05:32:21.062Z,100.00
2023-03-06T05:34:50.229Z,100.00
2023-03-06T05:37:17.831Z,100.00
2023-03-06T05:39:45.623Z,100.00
2023-03-06T05:42:13.240Z,100.00
2023-03-06T05:44:41.744Z,100.00
2023-03-06T05:47:09.389Z,100.00
2023-03-06T05:49:37.185Z,100.00
2023-03-06T05:52:06.818Z,100.00
2023-03-06T05:54:34.950Z,100.00
2023-03-06T05:57:04.166Z,100.00
2023-03-06T05:59:33.045Z,100.00
2023-03-06T06:02:01.130Z,100.00
2023-03-06T06:04:28.993Z,100.00
2023-03-06T06:06:57.453Z,100.00
2023-03-06T06:09:26.943Z,100.00
2023-03-06T06:11:54.844Z,100.00
2023-03-06T06:14:22.806Z,100.00
2023-03-06T06:16:50.480Z,100.00
2023-03-06T06:19:20.252Z,100.00
2023-03-06T06:21:48.723Z,100.00
2023-03-06T06:24:17.803Z,100.00
2023-03-06T06:26:46.992Z,100.00
2023-03-06T06:29:14.645Z,100.00
2023-03-06T06:31:42.414Z,100.00
2023-03-06T06:34:11.025Z,100.00
2023-03-06T06:36:38.810Z,100.00
2023-03-06T06:39:06.637Z,100.00
2023-03-06T06:41:51.825Z,100.00
2023-03-06T06:44:22.394Z,100.00
2023-03-06T06:47:21.806Z,100.00
2023-03-06T06:49:43.970Z,100.00
2023-03-06T06:52:11.716Z,100.00
2023-03-06T06:54:39.381Z,100.00
2023-03-06T06:57:07.070Z,100.00
2023-03-06T06:59:36.052Z,100.00
2023-03-06T07:02:03.939Z,100.00
2023-03-06T07:04:31.631Z,100.00
2023-03-06T07:06:59.420Z,100.00
2023-03-06T07:09:27.092Z,100.00
2023-03-06T07:11:54.718Z,100.00
2023-03-06T07:14:22.448Z,100.00
2023-03-06T07:16:51.428Z,100.00
2023-03-06T07:19:19.461Z,100.00
2023-03-06T07:21:47.123Z,100.00
2023-03-06T07:24:14.783Z,100.00
2023-03-06T07:26:42.438Z,100.00
2023-03-06T07:29:10.314Z,100.00
2023-03-06T07:31:38.081Z,100.00
2023-03-06T07:34:07.178Z,100.00
2023-03-06T07:36:34.990Z,100.00
2023-03-06T07:39:02.759Z,100.00
2023-03-06T07:41:30.368Z,100.00
2023-03-06T07:43:58.090Z,100.00
2023-03-06T07:46:25.819Z,100.00
2023-03-06T07:48:53.494Z,100.00
2023-03-06T07:51:22.846Z,100.00
2023-03-06T07:53:50.688Z,100.00
2023-03-06T07:56:18.364Z,100.00
2023-03-06T07:58:46.366Z,100.00
2023-03-06T08:01:14.740Z,100.00
2023-03-06T08:03:42.457Z,100.00
2023-03-06T08:06:10.829Z,100.00
2023-03-06T08:08:40.467Z,100.00
2023-03-06T08:11:08.636Z,100.00
2023-03-06T08:13:38.533Z,100.00
2023-03-06T08:16:06.659Z,100.00
2023-03-06T08:18:34.819Z,100.00
2023-03-06T08:21:03.377Z,100.00
2023-03-06T08:23:31.015Z,100.00
2023-03-06T08:26:00.694Z,100.00
2023-03-06T08:28:28.525Z,100.00
2023-03-06T08:30:56.272Z,100.00
2023-03-06T08:33:24.097Z,100.00
2023-03-06T08:35:51.792Z,100.00
2023-03-06T08:38:19.470Z,100.00
2023-03-06T08:40:47.103Z,100.00
2023-03-06T08:43:16.108Z,100.00
2023-03-06T08:45:43.772Z,100.00
2023-03-06T08:48:11.437Z,100.00
2023-03-06T08:50:39.164Z,100.00
2023-03-06T08:53:06.795Z,100.00
2023-03-06T08:55:36.885Z,100.00
2023-03-06T08:58:04.620Z,100.00
2023-03-06T09:00:33.790Z,100.00
2023-03-06T09:03:01.751Z,100.00
2023-03-06T09:05:29.507Z,100.00
2023-03-06T09:07:57.272Z,100.00
2023-03-06T09:10:25.912Z,100.00
2023-03-06T09:12:55.125Z,100.00
2023-03-06T09:15:23.641Z,100.00
2023-03-06T09:17:54.059Z,100.00
2023-03-06T09:20:22.071Z,100.00
2023-03-06T09:22:49.755Z,100.00
2023-03-06T09:25:20.325Z,100.00
2023-03-06T09:27:55.428Z,100.00
2023-03-06T09:30:29.774Z,100.00
2023-03-06T09:32:58.850Z,100.00
2023-03-06T09:35:26.626Z,100.00
2023-03-06T09:37:54.344Z,100.00
2023-03-06T09:40:25.392Z,100.00
2023-03-06T09:42:52.971Z,100.00
2023-03-06T09:45:21.819Z,100.00
2023-03-06T09:47:51.408Z,100.00
2023-03-06T09:50:23.078Z,100.00
2023-03-06T09:52:53.995Z,100.00
2023-03-06T09:55:22.267Z,100.00
2023-03-06T09:57:53.919Z,100.00
2023-03-06T10:00:24.439Z,100.00
2023-03-06T10:02:55.488Z,100.00
2023-03-06T10:05:25.944Z,100.00
2023-03-06T10:07:54.472Z,100.00
2023-03-06T10:10:24.113Z,100.00
2023-03-06T10:12:54.965Z,100.00
2023-03-06T10:15:23.163Z,100.00
2023-03-06T10:17:50.784Z,100.00
2023-03-06T10:20:19.700Z,100.00
2023-03-06T10:23:00.826Z,100.00
2023-03-06T10:25:31.867Z,100.00
2023-03-06T10:27:59.930Z,100.00
2023-03-06T10:30:29.225Z,100.00
2023-03-06T10:32:58.476Z,100.00
2023-03-06T10:35:30.395Z,100.00
2023-03-06T10:38:02.108Z,100.00
2023-03-06T10:40:31.629Z,100.00
2023-03-06T10:43:11.104Z,100.00
2023-03-06T10:45:49.170Z,100.00
2023-03-06T10:48:19.177Z,100.00
2023-03-06T10:50:46.760Z,100.00
2023-03-06T10:53:20.335Z,89.39
2023-03-06T10:55:52.001Z,100.00
2023-03-06T10:58:20.339Z,100.00
2023-03-06T11:00:47.983Z,89.25
2023-03-06T11:03:17.710Z,77.62
2023-03-06T11:05:54.296Z,71.60
2023-03-06T11:08:23.503Z,70.81
2023-03-06T11:10:56.252Z,69.90
2023-03-06T11:13:24.789Z,72.12
2023-03-06T11:15:56.388Z,77.49
2023-03-06T11:18:28.524Z,71.41
2023-03-06T11:20:56.494Z,73.04
2023-03-06T11:23:26.296Z,73.49
2023-03-06T11:25:56.112Z,69.17
2023-03-06T11:28:24.913Z,75.66
2023-03-06T11:30:53.144Z,73.79
2023-03-06T11:33:21.344Z,71.71
2023-03-06T11:35:53.206Z,73.56
2023-03-06T11:38:21.908Z,69.88
2023-03-06T11:40:52.792Z,69.00
2023-03-06T11:43:21.784Z,66.20
2023-03-06T11:45:52.207Z,68.03
2023-03-06T11:48:22.220Z,73.65
2023-03-06T11:50:50.639Z,68.29
2023-03-06T11:53:18.664Z,69.14
2023-03-06T11:55:47.507Z,69.96
2023-03-06T11:58:26.719Z,69.71
2023-03-06T12:00:54.776Z,69.40
2023-03-06T12:03:26.861Z,69.42
2023-03-06T12:05:54.771Z,66.76
2023-03-06T12:08:40.419Z,69.63
2023-03-06T12:11:11.294Z,65.32
2023-03-06T12:13:42.471Z,65.16
2023-03-06T12:16:15.939Z,64.26
2023-03-06T12:18:45.811Z,63.02
2023-03-06T12:21:16.114Z,62.57
2023-03-06T12:23:46.533Z,59.55
2023-03-06T12:26:19.882Z,61.90
2023-03-06T12:28:54.653Z,58.54
2023-03-06T12:31:28.117Z,59.55
2023-03-06T12:33:58.438Z,56.62
2023-03-06T12:36:29.572Z,55.73
2023-03-06T12:39:01.439Z,59.23
2023-03-06T12:41:35.142Z,59.14
2023-03-06T12:44:23.815Z,60.50
2023-03-06T12:46:54.712Z,57.69
2023-03-06T12:49:32.046Z,59.62
2023-03-06T12:52:00.449Z,54.40
2023-03-06T12:54:28.707Z,54.96
2023-03-06T12:56:56.676Z,55.12
2023-03-06T12:59:37.571Z,56.49
2023-03-06T13:02:23.874Z,57.39
2023-03-06T13:04:56.439Z,58.51
2023-03-06T13:07:34.336Z,55.62
2023-03-06T13:10:13.714Z,54.08
2023-03-06T13:12:54.193Z,53.95
2023-03-06T13:15:30.228Z,53.01
2023-03-06T13:17:57.873Z,50.83
2023-03-06T13:20:37.092Z,49.35
2023-03-06T13:23:25.526Z,50.38
2023-03-06T13:25:53.215Z,51.09
2023-03-06T13:28:25.410Z,49.89
2023-03-06T13:30:53.447Z,52.91
2023-03-06T13:33:39.790Z,47.87
2023-03-06T13:36:22.256Z,46.40
2023-03-06T13:38:56.637Z,41.90
2023-03-06T13:41:41.905Z,39.70
2023-03-06T13:44:30.663Z,38.27
2023-03-06T13:46:58.800Z,40.33
2023-03-06T13:49:26.560Z,39.22
2023-03-06T13:52:02.359Z,38.82
2023-03-06T13:54:32.433Z,38.69
2023-03-06T13:57:20.809Z,41.71
2023-03-06T14:00:14.160Z,38.93
2023-03-06T14:02:42.785Z,43.29
2023-03-06T14:05:11.931Z,41.80
2023-03-06T14:07:41.671Z,40.87
2023-03-06T14:10:16.200Z,44.56
2023-03-06T14:12:45.550Z,44.33
2023-03-06T14:15:15.327Z,45.00
2023-03-06T14:17:46.957Z,44.21
2023-03-06T14:20:15.340Z,42.18
2023-03-06T14:22:44.398Z,42.19
2023-03-06T14:25:15.286Z,41.36
2023-03-06T14:27:44.090Z,43.03
2023-03-06T14:30:13.472Z,43.54
2023-03-06T14:32:41.149Z,42.64
2023-03-06T14:35:20.704Z,41.13
2023-03-06T14:37:52.408Z,39.57
2023-03-06T14:40:20.834Z,41.24
2023-03-06T14:42:48.424Z,43.30
2023-03-06T14:45:17.070Z,45.27
2023-03-06T14:47:44.996Z,46.46
2023-03-06T14:50:19.820Z,45.04
2023-03-06T14:52:47.422Z,45.03
2023-03-06T14:55:18.398Z,43.96
2023-03-06T14:57:46.093Z,42.02
2023-03-06T15:00:17.287Z,42.80
2023-03-06T15:02:45.083Z,41.39
2023-03-06T15:05:15.724Z,38.76
2023-03-06T15:07:43.314Z,41.04
2023-03-06T15:10:21.058Z,39.58
2023-03-06T15:12:50.093Z,43.54
2023-03-06T15:15:28.816Z,43.32
2023-03-06T15:17:56.405Z,42.00
2023-03-06T15:20:42.624Z,38.00
2023-03-06T15:23:17.142Z,37.60
2023-03-06T15:25:50.994Z,33.05
2023-03-06T15:28:25.773Z,31.66
2023-03-06T15:31:02.160Z,29.98
2023-03-06T15:33:29.874Z,31.18
2023-03-06T15:35:57.852Z,33.42
2023-03-06T15:38:26.749Z,34.68
2023-03-06T15:40:55.255Z,32.93
2023-03-06T15:43:22.852Z,31.74
2023-03-06T15:45:51.842Z,31.17
2023-03-06T15:48:19.483Z,30.89
2023-03-06T15:50:47.175Z,30.13
2023-03-06T15:53:14.881Z,30.22
2023-03-06T15:55:42.484Z,32.02
2023-03-06T15:58:13.098Z,33.31
2023-03-06T16:00:40.902Z,34.27
2023-03-06T16:03:11.451Z,34.61
2023-03-06T16:05:39.116Z,42.48
2023-03-06T16:08:06.770Z,38.85
2023-03-06T16:10:35.210Z,41.39
2023-03-06T16:13:03.643Z,43.68
2023-03-06T16:15:33.081Z,45.50
2023-03-06T16:18:00.772Z,46.03
2023-03-06T16:20:30.176Z,46.36
2023-03-06T16:22:57.810Z,44.57
2023-03-06T16:25:26.095Z,42.57
2023-03-06T16:27:55.421Z,40.96
2023-03-06T16:30:24.000Z,47.44
2023-03-06T16:32:51.648Z,47.32
2023-03-06T16:35:19.440Z,48.48
2023-03-06T16:37:48.840Z,47.33
2023-03-06T16:40:18.889Z,49.08
2023-03-06T16:42:46.599Z,51.39
2023-03-06T16:45:14.665Z,57.93
2023-03-06T16:47:42.329Z,64.14
2023-03-06T16:50:10.857Z,71.77
2023-03-06T16:52:38.500Z,78.39
2023-03-06T16:55:07.721Z,87.40
2023-03-06T16:57:35.708Z,86.29
2023-03-06T17:00:03.377Z,88.74
2023-03-06T17:02:31.037Z,95.21
2023-03-06T17:04:58.779Z,84.32
2023-03-06T17:07:26.393Z,91.79
2023-03-06T17:09:54.005Z,97.70
2023-03-06T17:12:23.042Z,100.00
2023-03-06T17:14:50.676Z,100.00
2023-03-06T17:17:19.178Z,100.00
2023-03-06T17:19:47.531Z,100.00
2023-03-06T17:22:15.902Z,84.10
2023-03-06T17:24:43.812Z,95.36
2023-03-06T17:27:11.409Z,93.52
2023-03-06T17:29:40.800Z,100.00
2023-03-06T17:32:08.653Z,100.00
2023-03-06T17:34:36.351Z,100.00
2023-03-06T17:37:04.043Z,100.00
2023-03-06T17:39:32.607Z,100.00
2023-03-06T17:42:00.217Z,100.00
2023-03-06T17:44:27.879Z,100.00
2023-03-06T17:46:56.831Z,100.00
2023-03-06T17:49:25.273Z,100.00
2023-03-06T17:51:53.079Z,100.00
2023-03-06T17:54:20.869Z,100.00
2023-03-06T17:56:48.482Z,100.00
2023-03-06T17:59:16.123Z,100.00
2023-03-06T18:01:45.012Z,100.00
2023-03-06T18:04:14.080Z,100.00
2023-03-06T18:06:41.711Z,100.00
2023-03-06T18:09:10.014Z,100.00
2023-03-06T18:11:38.039Z,100.00
2023-03-06T18:14:05.803Z,100.00
2023-03-06T18:16:34.663Z,100.00
2023-03-06T18:19:05.343Z,100.00
2023-03-06T18:21:34.535Z,100.00
2023-03-06T18:24:02.130Z,100.00
2023-03-06T18:26:30.176Z,100.00
2023-03-06T18:28:58.501Z,100.00
2023-03-06T18:31:27.587Z,100.00
2023-03-06T18:33:55.934Z,100.00
2023-03-06T18:36:23.870Z,100.00
2023-03-06T18:38:52.997Z,100.00
2023-03-06T18:41:20.738Z,100.00
2023-03-06T18:43:51.978Z,100.00
2023-03-06T18:46:19.580Z,100.00
2023-03-06T18:48:47.315Z,100.00
2023-03-06T18:51:15.108Z,100.00
2023-03-06T18:53:42.841Z,100.00
2023-03-06T18:56:15.061Z,100.00
2023-03-06T18:58:42.683Z,100.00
2023-03-06T19:01:10.475Z,100.00
2023-03-06T19:03:38.178Z,99.70
2023-03-06T19:06:06.137Z,100.00
2023-03-06T19:08:33.900Z,100.00
2023-03-06T19:11:05.569Z,100.00
2023-03-06T19:13:34.657Z,100.00
2023-03-06T19:16:02.433Z,97.54
2023-03-06T19:18:30.770Z,100.00
2023-03-06T19:21:07.757Z,100.00
2023-03-06T19:23:35.449Z,100.00
2023-03-06T19:26:03.061Z,100.00
2023-03-06T19:28:30.779Z,93.81
2023-03-06T19:30:59.740Z,100.00
2023-03-06T19:33:27.415Z,100.00
2023-03-06T19:35:55.066Z,93.55
2023-03-06T19:38:22.810Z,94.35
2023-03-06T19:40:50.680Z,93.14
2023-03-06T19:43:18.391Z,97.14
2023-03-06T19:45:46.113Z,92.31
2023-03-06T19:48:15.342Z,95.62
2023-03-06T19:50:42.991Z,90.92
2023-03-06T19:53:10.999Z,100.00
2023-03-06T19:55:38.757Z,100.00
2023-03-06T19:58:06.446Z,100.00
2023-03-06T20:00:34.489Z,100.00
2023-03-06T20:03:02.141Z,100.00
2023-03-06T20:05:31.312Z,100.00
2023-03-06T20:07:59.141Z,100.00
2023-03-06T20:10:26.969Z,100.00
2023-03-06T20:12:54.639Z,100.00
2023-03-06T20:15:22.930Z,100.00
2023-03-06T20:17:50.693Z,100.00
2023-03-06T20:20:19.246Z,100.00
2023-03-06T20:22:48.263Z,100.00
2023-03-06T20:25:15.905Z,100.00
2023-03-06T20:27:43.819Z,100.00
2023-03-06T20:30:12.061Z,100.00
2023-03-06T20:32:39.930Z,100.00
2023-03-06T20:35:08.237Z,100.00
2023-03-06T20:37:35.942Z,100.00
2023-03-06T20:40:08.781Z,100.00
2023-03-06T20:42:36.693Z,100.00
2023-03-06T20:45:04.492Z,100.00
2023-03-06T20:47:32.150Z,100.00
2023-03-06T20:49:59.735Z,100.00
2023-03-06T20:52:27.422Z,100.00
2023-03-06T20:54:55.025Z,100.00
2023-03-06T20:57:24.016Z,100.00
2023-03-06T20:59:51.636Z,100.00
2023-03-06T21:02:19.304Z,100.00
2023-03-06T21:04:46.934Z,100.00
2023-03-06T21:07:19.766Z,100.00
2023-03-06T21:09:49.537Z,100.00
2023-03-06T21:12:17.170Z,100.00
2023-03-06T21:14:46.201Z,100.00
2023-03-06T21:17:14.017Z,100.00
2023-03-06T21:19:42.402Z,100.00
2023-03-06T21:22:10.682Z,100.00
2023-03-06T21:24:38.331Z,100.00
2023-03-06T21:27:05.991Z,100.00
2023-03-06T21:29:33.659Z,100.00
2023-03-06T21:32:03.273Z,100.00
2023-03-06T21:34:30.934Z,100.00
2023-03-06T21:36:58.823Z,100.00
2023-03-06T21:39:26.480Z,100.00
2023-03-06T21:41:54.184Z,100.00
2023-03-06T21:44:21.828Z,100.00
2023-03-06T21:46:49.447Z,100.00
2023-03-06T21:49:18.534Z,100.00
2023-03-06T21:51:46.203Z,100.00
2023-03-06T21:54:14.277Z,100.00
2023-03-06T21:56:41.985Z,100.00
2023-03-06T21:59:09.714Z,100.00
2023-03-06T22:01:37.511Z,100.00
2023-03-06T22:04:05.190Z,100.00
2023-03-06T22:06:34.298Z,100.00
2023-03-06T22:09:02.329Z,100.00
2023-03-06T22:11:31.224Z,100.00
2023-03-06T22:13:58.988Z,100.00
2023-03-06T22:16:26.639Z,100.00
2023-03-06T22:18:54.250Z,100.00
2023-03-06T22:21:23.075Z,97.16
2023-03-06T22:23:52.858Z,96.63
2023-03-06T22:26:20.758Z,94.36
2023-03-06T22:28:48.364Z,92.37
2023-03-06T22:31:17.213Z,92.08
2023-03-06T22:33:44.969Z,91.06
2023-03-06T22:36:13.191Z,89.87
2023-03-06T22:38:41.526Z,90.22
2023-03-06T22:41:10.898Z,87.84
2023-03-06T22:43:38.554Z,92.25
2023-03-06T22:46:07.096Z,88.55
2023-03-06T22:48:35.034Z,92.44
2023-03-06T22:51:03.447Z,88.43
2023-03-06T22:53:31.185Z,89.24
2023-03-06T22:55:59.188Z,93.37
2023-03-06T22:58:34.077Z,95.67
2023-03-06T23:01:04.580Z,92.69
2023-03-06T23:03:32.231Z,100.00
2023-03-06T23:05:59.868Z,100.00
2023-03-06T23:08:27.587Z,100.00
2023-03-06T23:10:55.225Z,100.00
2023-03-06T23:13:42.849Z,100.00
2023-03-06T23:16:29.330Z,100.00
2023-03-06T23:19:15.426Z,100.00
2023-03-06T23:22:01.662Z,100.00
2023-03-06T23:24:47.922Z,100.00
2023-03-06T23:27:16.837Z,100.00
2023-03-06T23:29:45.901Z,100.00
2023-03-06T23:32:13.512Z,100.00
2023-03-06T23:34:41.153Z,100.00
2023-03-06T23:37:08.745Z,100.00
2023-03-06T23:39:37.254Z,100.00
2023-03-06T23:42:04.972Z,100.00
2023-03-06T23:44:32.606Z,100.00
2023-03-06T23:47:01.528Z,100.00
2023-03-06T23:49:29.137Z,100.00
2023-03-06T23:51:56.764Z,100.00
2023-03-06T23:54:24.425Z,100.00
2023-03-06T23:56:52.166Z,100.00
2023-03-06T23:59:19.775Z,100.00
